Time;durP1;ratioP1;P1;durP2;ratioP2;P2;SDS_P1;SDS_P2;PMS_P1;PMS_P2;Temp;Humidity;BMP_temperature;BMP_pressure;BME280_temperature;BME280_humidity;BME280_pressure;Samples;Min_cycle;Max_cycle;Signal;HPM_P1;HPM_P2
2022/12/17 13:07:29;;;;;;;;;54.25;41.75;;;;;6.36;54.38;6999.59;4882406;29;45605;-90
2022/12/17 13:09:57;;;;;;;;;43.25;35.50;;;;;7.21;54.16;7013.31;4875838;29;45531;-90
2022/12/17 13:12:42;;;;;;;;;48.75;42.00;;;;;7.17;54.41;7344.19;4894205;28;46427;-90
2022/12/17 13:15:36;;;;;;;;;51.00;39.25;;;;;7.16;54.46;7344.00;4894224;28;45503;-91
2022/12/17 13:18:18;;;;;;;;;52.50;43.00;;;;;7.09;54.79;8005.41;4868771;29;45723;-90
2022/12/17 13:20:57;;;;;;;;;53.50;41.00;;;;;6.97;54.37;8003.41;4883037;29;45265;-89
2022/12/17 13:23:55;;;;;;;;;40.50;34.75;;;;;7.01;54.34;8666.69;5866927;22;46979;-86
2022/12/17 13:26:20;;;;;;;;;51.00;42.00;;;;;6.93;54.51;8996.69;4987396;28;47233;-87
2022/12/17 13:32:43;;;;;;;;;53.25;45.00;;;;;5.78;54.93;9966.81;4892731;28;45711;-87
2022/12/17 13:35:41;;;;;;;;;56.75;41.50;;;;;6.03;54.88;9972.06;4896240;29;46260;-86
2022/12/17 13:38:12;;;;;;;;;54.25;43.75;;;;;6.70;55.33;9654.69;4892698;28;45558;-86
2022/12/17 13:40:37;;;;;;;;;51.25;41.00;;;;;6.66;54.86;9653.97;4871146;29;45606;-86
2022/12/17 13:45:36;;;;;;;;;50.75;38.25;;;;;6.28;55.45;9977.22;4993100;28;45571;-84
2022/12/17 13:48:02;;;;;;;;;53.50;43.75;;;;;6.63;55.10;9984.50;4998166;28;46673;-85
2022/12/17 13:50:29;;;;;;;;;84.25;73.00;;;;;6.55;55.60;9982.91;4972350;28;45436;-85
2022/12/17 13:52:55;;;;;;;;;56.50;43.50;;;;;6.41;55.08;10311.09;4991116;28;45387;-84
2022/12/17 13:55:26;;;;;;;;;58.00;44.25;;;;;6.62;55.41;10315.72;4994449;28;48382;-86
2022/12/17 13:57:52;;;;;;;;;47.75;36.25;;;;;6.59;55.52;10315.06;4968513;28;45503;-85
2022/12/17 14:00:26;;;;;;;;;50.25;42.25;;;;;6.55;54.93;10645.47;4992787;28;45778;-85
2022/12/17 14:02:52;;;;;;;;;54.00;42.75;;;;;6.31;55.46;10640.28;4994919;28;45472;-85
2022/12/17 14:05:28;;;;;;;;;52.25;42.50;;;;;6.18;54.80;11299.53;4989868;28;47202;-85
2022/12/17 14:07:57;;;;;;;;;51.25;39.50;;;;;6.44;54.96;11305.66;4992702;28;45320;-85
2022/12/17 14:10:23;;;;;;;;;47.00;40.50;;;;;6.45;55.00;11305.91;4977451;28;45499;-85
2022/12/17 14:12:49;;;;;;;;;50.00;38.75;;;;;6.18;55.15;11630.81;4973664;28;45498;-86
2022/12/17 14:15:23;;;;;;;;;48.50;38.00;;;;;6.17;55.02;11630.59;4988524;28;48166;-85
2022/12/17 14:17:50;;;;;;;;;51.25;42.75;;;;;6.22;55.32;11631.78;4992955;28;45398;-85
2022/12/17 14:20:27;;;;;;;;;44.75;37.25;;;;;5.74;55.01;11620.31;4970511;28;45557;-86
2022/12/17 14:22:58;;;;;;;;;39.75;36.00;;;;;6.31;55.64;11965.13;4993296;28;45437;-87
2022/12/17 14:25:29;;;;;;;;;46.75;38.75;;;;;6.09;55.32;11628.78;4973674;28;47175;-87
2022/12/17 14:28:01;;;;;;;;;44.25;38.25;;;;;6.32;55.84;11634.22;4991632;28;45950;-87
2022/12/17 14:30:41;;;;;;;;;42.75;35.50;;;;;6.28;55.39;11964.38;4975581;28;45411;-87
2022/12/17 14:33:40;;;;;;;;;44.50;35.50;;;;;6.25;55.65;12295.06;4995789;28;45628;-87
2022/12/17 14:36:16;;;;;;;;;40.75;38.00;;;;;6.25;55.72;12295.06;4891805;28;48743;-87
2022/12/17 14:39:02;;;;;;;;;42.25;34.50;;;;;5.92;55.44;12286.97;4912046;28;45437;-87
2022/12/17 14:44:23;;;;;;;;;50.50;38.50;;;;;5.58;55.45;12940.41;4912062;28;45670;-86
2022/12/17 14:46:50;;;;;;;;;48.50;40.25;;;;;5.43;55.47;12605.72;4893230;28;48177;-86
2022/12/17 14:49:18;;;;;;;;;46.75;39.50;;;;;6.05;55.67;13283.69;4901907;28;45465;-86
2022/12/17 14:51:44;;;;;;;;;49.00;38.00;;;;;6.08;55.46;12953.34;4897129;28;45467;-86
2022/12/17 14:54:12;;;;;;;;;42.50;37.75;;;;;6.05;55.63;12952.56;4914308;28;45806;-86
2022/12/17 14:56:39;;;;;;;;;49.00;38.00;;;;;5.91;55.53;13280.03;4914740;28;48125;-86
2022/12/17 14:59:04;;;;;;;;;50.50;37.75;;;;;5.29;55.66;12932.91;4918604;28;45551;-86
2022/12/17 15:01:30;;;;;;;;;37.50;33.25;;;;;5.29;55.80;13263.75;4923640;28;45309;-86
2022/12/17 15:03:55;;;;;;;;;56.25;45.75;;;;;5.57;55.76;13271.03;4904174;28;45592;-84
2022/12/17 15:06:21;;;;;;;;;50.75;39.25;;;;;5.25;55.94;13593.53;4915246;28;46205;-84
2022/12/17 15:08:49;;;;;;;;;42.50;35.50;;;;;5.92;56.06;13611.53;4922487;28;45505;-84
2022/12/17 15:11:17;;;;;;;;;49.25;37.25;;;;;5.89;55.55;13610.69;4947024;28;45849;-84
2022/12/17 15:13:43;;;;;;;;;53.50;42.25;;;;;5.64;56.05;13603.97;4978570;28;45512;-84
2022/12/17 15:16:09;;;;;;;;;51.00;40.25;;;;;5.86;55.99;13609.88;4983525;28;45714;-83
2022/12/17 15:18:35;;;;;;;;;43.75;38.00;;;;;5.69;56.21;13605.47;4980546;28;47026;-84
2022/12/17 15:21:01;;;;;;;;;49.00;38.50;;;;;5.82;56.00;13608.91;4984185;28;45502;-83
2022/12/17 15:23:26;;;;;;;;;51.00;42.00;;;;;5.44;56.32;13929.75;4982657;28;45509;-89
2022/12/17 15:25:52;;;;;;;;;57.00;45.00;;;;;4.99;55.95;13586.69;4996141;28;45604;-88
2022/12/17 15:28:19;;;;;;;;;56.50;43.00;;;;;5.59;56.48;13602.72;4994639;28;45378;-88
2022/12/17 15:30:46;;;;;;;;;55.50;45.50;;;;;5.34;56.25;13595.88;4999615;28;45386;-88
2022/12/17 15:33:12;;;;;;;;;53.75;42.50;;;;;5.78;56.44;13607.69;4997392;28;45583;-89
2022/12/17 15:35:38;;;;;;;;;52.75;40.50;;;;;5.63;56.00;13934.78;5008715;28;47652;-89
2022/12/17 15:38:05;;;;;;;;;49.50;40.25;;;;;5.75;56.37;13938.13;4998699;28;45364;-89
2022/12/17 15:40:31;;;;;;;;;49.25;39.75;;;;;5.72;55.95;14599.81;4981203;28;45547;-88
2022/12/17 15:43:11;;;;;;;;;50.50;38.50;;;;;5.58;55.89;14595.59;4977340;28;45589;-90
2022/12/17 15:45:48;;;;;;;;;43.75;36.00;;;;;5.41;55.67;15253.06;4988464;28;45430;-89
2022/12/17 15:48:19;;;;;;;;;42.25;35.75;;;;;5.57;55.80;15257.59;4999342;28;45435;-89
2022/12/17 15:50:45;;;;;;;;;43.50;37.75;;;;;5.58;55.83;14926.72;5000909;28;45466;-89
2022/12/17 15:53:10;;;;;;;;;54.75;40.75;;;;;5.31;55.61;14919.03;4993432;28;45676;-88
2022/12/17 15:55:37;;;;;;;;;54.25;43.75;;;;;5.65;55.88;14928.94;4967706;28;47562;-89
2022/12/17 15:58:02;;;;;;;;;61.00;46.00;;;;;5.42;55.91;14922.13;4975627;28;46066;-89
2022/12/17 16:00:28;;;;;;;;;50.75;41.00;;;;;5.53;55.92;14925.25;4990743;28;46969;-89
2022/12/17 16:02:54;;;;;;;;;48.25;38.50;;;;;5.15;56.44;15245.38;4981237;28;45539;-90
2022/12/17 16:05:19;;;;;;;;;51.25;42.25;;;;;4.93;56.19;15238.88;4987724;28;47181;-89
2022/12/17 16:07:45;;;;;;;;;53.00;44.25;;;;;5.29;56.60;15249.44;4989266;28;45645;-89
2022/12/17 16:10:12;;;;;;;;;50.00;41.25;;;;;5.07;56.54;15243.09;4996854;28;45372;-87
2022/12/17 16:12:37;;;;;;;;;51.25;42.25;;;;;5.35;56.57;15582.19;4990173;28;45443;-88
2022/12/17 16:15:04;;;;;;;;;55.75;44.00;;;;;5.06;55.98;16235.50;4990981;28;45476;-88
2022/12/17 16:17:29;;;;;;;;;52.00;42.50;;;;;4.82;56.00;16558.91;4995042;28;45664;-88
2022/12/17 16:19:54;;;;;;;;;59.75;45.75;;;;;5.26;56.05;16572.81;4989442;28;45569;-87
2022/12/17 16:22:20;;;;;;;;;58.50;46.75;;;;;4.69;56.13;16885.53;4991636;28;45493;-84
2022/12/17 16:24:46;;;;;;;;;55.75;42.00;;;;;4.81;56.83;16227.88;4993776;28;48011;-83
2022/12/17 16:27:12;;;;;;;;;59.00;47.75;;;;;5.17;57.14;15907.97;4993484;28;46471;-84
2022/12/17 16:29:37;;;;;;;;;63.75;49.50;;;;;5.03;57.33;15572.81;4994997;28;45500;-83
2022/12/17 16:32:03;;;;;;;;;61.50;47.25;;;;;4.95;57.73;15239.50;4988092;28;45686;-82
2022/12/17 16:34:28;;;;;;;;;61.50;51.25;;;;;4.62;57.36;15229.69;4996439;28;48257;-83
2022/12/17 16:36:54;;;;;;;;;62.50;52.00;;;;;4.48;57.99;15225.47;4996732;28;45394;-84
2022/12/17 16:39:19;;;;;;;;;55.00;44.50;;;;;4.98;57.40;15571.13;4996105;28;45486;-84
2022/12/17 16:41:45;;;;;;;;;57.75;45.25;;;;;4.83;57.58;15897.66;4996570;28;45482;-84
2022/12/17 16:44:11;;;;;;;;;55.25;41.75;;;;;4.10;56.36;16866.63;4982363;28;48163;-89
2022/12/17 16:46:39;;;;;;;;;48.75;40.75;;;;;4.81;56.67;17551.53;4956224;28;45836;-84
2022/12/17 16:49:08;;;;;;;;;48.75;41.25;;;;;4.74;56.51;17549.00;4960037;28;45740;-83
2022/12/17 16:51:35;;;;;;;;;62.50;47.25;;;;;4.92;56.76;17223.94;4960048;28;45572;-85
2022/12/17 16:54:05;;;;;;;;;65.50;51.75;;;;;4.72;56.96;16886.69;4955606;28;48021;-84
2022/12/17 16:56:30;;;;;;;;;50.00;42.00;;;;;4.62;56.99;17545.06;4955355;28;45471;-84
2022/12/17 16:58:56;;;;;;;;;51.75;42.00;;;;;4.58;56.52;18536.38;4956724;28;45444;-84
2022/12/17 17:01:24;;;;;;;;;51.50;41.50;;;;;4.56;56.38;19197.56;4963526;28;45447;-84
2022/12/17 17:03:50;;;;;;;;;34.50;34.50;;;;;4.74;55.48;19535.28;4955160;28;46340;-83
2022/12/17 17:06:17;;;;;;;;;32.25;31.25;;;;;4.02;55.38;20832.06;4954021;28;45598;-84
2022/12/17 17:08:42;;;;;;;;;28.50;27.75;;;;;4.67;55.32;20856.94;4975196;28;45349;-84
2022/12/17 17:11:14;;;;;;;;;41.00;35.25;;;;;4.84;55.67;19869.97;4963653;28;45479;-83
2022/12/17 17:13:40;;;;;;;;;55.75;44.75;;;;;4.10;56.66;18850.50;4976689;28;47978;-83
2022/12/17 17:16:08;;;;;;;;;53.25;42.25;;;;;4.81;57.22;18213.38;4954306;28;45551;-83
2022/12/17 17:18:35;;;;;;;;;69.00;50.50;;;;;4.74;56.93;17879.94;4972443;28;45491;-83
2022/12/17 17:21:18;;;;;;;;;58.75;45.50;;;;;4.76;57.55;17880.63;4961556;28;45591;-83
2022/12/17 17:23:52;;;;;;;;;62.00;46.75;;;;;4.65;57.80;17546.09;4955244;28;48556;-84
2022/12/17 17:26:18;;;;;;;;;56.50;45.25;;;;;4.34;57.66;17535.91;4956233;28;45689;-83
2022/12/17 17:28:45;;;;;;;;;61.75;47.50;;;;;4.43;58.07;17208.22;4956588;28;45412;-84
2022/12/17 17:31:12;;;;;;;;;50.75;41.50;;;;;4.61;58.18;17214.06;4972611;28;45654;-83
2022/12/17 17:33:42;;;;;;;;;56.50;46.25;;;;;4.39;58.12;17206.69;4959085;28;45464;-84
2022/12/17 17:36:13;;;;;;;;;56.25;45.75;;;;;4.22;57.71;17201.19;4954308;28;45345;-84
2022/12/17 17:38:39;;;;;;;;;59.75;48.50;;;;;3.98;58.33;17193.34;4957449;28;45648;-84
2022/12/17 17:41:07;;;;;;;;;63.75;50.00;;;;;4.47;57.78;16878.63;4957861;28;45547;-84
2022/12/17 17:43:33;;;;;;;;;64.75;52.50;;;;;4.07;58.19;16865.81;4961529;28;47691;-84
2022/12/17 17:46:13;;;;;;;;;59.50;49.75;;;;;4.24;58.61;16871.22;4992555;28;45416;-84
2022/12/17 17:48:39;;;;;;;;;64.25;49.75;;;;;4.33;58.62;16874.19;4991732;28;45548;-84
2022/12/17 17:51:16;;;;;;;;;62.25;50.00;;;;;4.43;58.84;16546.63;4995979;28;45463;-83
2022/12/17 17:53:43;;;;;;;;;64.00;50.25;;;;;4.42;58.74;16215.78;4996233;28;45516;-84
2022/12/17 17:56:14;;;;;;;;;58.50;49.00;;;;;4.40;58.69;16215.16;4995919;28;45527;-83
2022/12/17 17:58:46;;;;;;;;;65.50;52.50;;;;;3.91;58.96;15869.56;4985661;28;45490;-83
2022/12/17 18:01:15;;;;;;;;;65.25;52.00;;;;;4.37;58.34;16214.03;4996253;28;45454;-83
2022/12/17 18:03:40;;;;;;;;;63.00;51.50;;;;;4.11;58.51;16536.59;4996069;28;45402;-83
2022/12/17 18:06:08;;;;;;;;;64.50;51.50;;;;;3.93;58.07;17191.84;4994826;28;45622;-84
2022/12/17 18:08:34;;;;;;;;;67.00;52.25;;;;;3.98;58.49;16863.03;4962984;28;45489;-84
2022/12/17 18:11:02;;;;;;;;;59.25;46.00;;;;;4.41;58.36;16876.81;4992107;28;45547;-84
2022/12/17 18:16:12;;;;;;;;;60.75;48.75;;;;;4.07;57.78;17526.91;4991726;28;45759;-84
2022/12/17 18:18:38;;;;;;;;;59.75;48.00;;;;;4.06;57.82;17526.56;4990726;28;45505;-83
2022/12/17 18:21:06;;;;;;;;;55.50;46.25;;;;;4.12;58.16;17859.03;4994000;28;45662;-84
2022/12/17 18:23:32;;;;;;;;;55.75;45.25;;;;;3.81;57.47;17848.69;4996058;28;45619;-87
2022/12/17 18:26:11;;;;;;;;;60.25;47.50;;;;;3.86;57.56;17850.25;4997351;28;45667;-88
2022/12/17 18:28:38;;;;;;;;;60.75;47.50;;;;;4.41;58.25;17538.28;4993997;28;45340;-88
2022/12/17 18:31:08;;;;;;;;;60.75;47.50;;;;;4.42;57.82;17207.69;4995828;28;45546;-89
2022/12/17 18:33:34;;;;;;;;;63.00;48.50;;;;;4.42;57.78;17207.69;4977607;28;48118;-88
2022/12/17 18:35:59;;;;;;;;;65.75;51.00;;;;;3.96;57.98;17523.16;4993797;28;45573;-89
2022/12/17 18:38:25;;;;;;;;;65.00;51.50;;;;;4.31;57.80;17534.72;4977129;28;46123;-88
2022/12/17 18:40:50;;;;;;;;;64.75;52.00;;;;;3.96;57.81;17523.34;4995782;28;45507;-87
2022/12/17 18:43:24;;;;;;;;;68.50;54.00;;;;;4.16;58.11;17199.34;4977822;28;45418;-86
2022/12/17 18:45:51;;;;;;;;;65.25;50.25;;;;;4.42;58.05;17538.63;5012624;28;45503;-95
2022/12/17 18:48:17;;;;;;;;;67.75;52.00;;;;;4.11;57.80;17858.69;4995193;28;45438;-91
2022/12/17 18:50:42;;;;;;;;;60.00;49.50;;;;;3.79;58.05;18178.63;4996429;28;45273;-90
2022/12/17 18:53:08;;;;;;;;;61.75;48.75;;;;;4.08;57.88;17857.84;4994548;28;47337;-92
2022/12/17 18:55:39;;;;;;;;;65.25;52.00;;;;;4.02;57.94;17855.75;4996107;28;45458;-86
2022/12/17 18:58:05;;;;;;;;;67.25;52.75;;;;;4.12;58.22;17859.03;4996342;28;45509;-87
2022/12/17 19:00:30;;;;;;;;;60.25;49.00;;;;;3.96;58.36;18184.25;4988362;28;45418;-87
2022/12/17 19:02:56;;;;;;;;;66.50;49.75;;;;;3.91;58.44;18182.66;4993083;28;46209;-89
2022/12/17 19:05:21;;;;;;;;;62.75;48.75;;;;;4.03;58.48;17856.09;4995414;28;45293;-89
2022/12/17 19:07:46;;;;;;;;;65.75;52.50;;;;;3.45;58.24;17836.63;4991270;28;45412;-87
2022/12/17 19:10:12;;;;;;;;;69.75;52.25;;;;;4.11;58.07;17858.88;4972119;28;45711;-88
2022/12/17 19:12:37;;;;;;;;;66.25;52.75;;;;;4.18;58.49;17861.28;4976536;28;48008;-87
2022/12/17 19:15:02;;;;;;;;;68.00;55.00;;;;;4.09;58.48;18188.63;4991950;28;45298;-89
2022/12/17 19:17:28;;;;;;;;;74.50;55.00;;;;;3.95;58.42;17853.53;4990660;28;45611;-90
2022/12/17 19:19:53;;;;;;;;;70.50;55.75;;;;;4.00;58.39;18185.66;4970188;28;45540;-88
2022/12/17 19:22:18;;;;;;;;;74.50;56.75;;;;;3.84;58.41;18180.22;4981996;28;45463;-84
2022/12/17 19:24:44;;;;;;;;;67.50;54.00;;;;;3.85;58.07;18511.09;4992636;28;45600;-85
2022/12/17 19:27:09;;;;;;;;;75.25;58.00;;;;;3.86;58.32;18511.28;4993451;28;45376;-84
2022/12/17 19:29:36;;;;;;;;;73.50;56.50;;;;;3.86;58.15;18842.00;4972142;28;45874;-84
2022/12/17 19:32:02;;;;;;;;;76.00;59.00;;;;;3.92;58.08;19174.63;4991911;28;45675;-84
2022/12/17 19:34:27;;;;;;;;;64.50;53.00;;;;;3.90;58.00;19504.50;4992960;28;45710;-84
2022/12/17 19:36:52;;;;;;;;;70.75;53.00;;;;;3.86;57.85;19833.84;4974997;28;45764;-84
2022/12/17 19:39:19;;;;;;;;;62.00;49.00;;;;;4.02;57.60;20170.66;4993750;28;45887;-83
2022/12/17 19:41:44;;;;;;;;;64.00;53.00;;;;;3.79;57.70;20492.69;4985237;28;46423;-85
2022/12/17 19:44:12;;;;;;;;;67.75;53.50;;;;;3.99;57.74;20500.28;4995143;28;45369;-85
2022/12/17 19:46:38;;;;;;;;;62.00;51.50;;;;;3.95;57.27;20829.31;4994994;28;45376;-85
2022/12/17 19:49:04;;;;;;;;;61.00;50.50;;;;;3.82;57.45;21155.09;5000398;28;45587;-85
2022/12/17 19:51:30;;;;;;;;;69.00;55.75;;;;;3.88;57.55;21157.31;4987700;28;46231;-85
2022/12/17 19:53:57;;;;;;;;;50.50;43.00;;;;;3.55;57.51;21475.31;4996698;28;45615;-85
2022/12/17 19:56:26;;;;;;;;;62.50;51.25;;;;;3.84;57.31;21817.47;4995964;28;45768;-85
2022/12/17 19:58:54;;;;;;;;;60.00;49.50;;;;;3.64;57.55;22139.97;4975284;28;45503;-85
2022/12/17 20:01:27;;;;;;;;;64.00;50.25;;;;;3.85;57.56;22148.50;4993755;28;45669;-86
2022/12/17 20:03:53;;;;;;;;;56.00;45.25;;;;;3.84;57.57;22148.31;4996627;28;45371;-85
2022/12/17 20:06:21;;;;;;;;;65.50;50.75;;;;;3.75;57.41;22475.38;4978542;28;45437;-85
2022/12/17 20:08:47;;;;;;;;;59.50;47.00;;;;;3.37;57.16;22459.97;4997375;28;45508;-85
2022/12/17 20:11:32;;;;;;;;;63.50;50.75;;;;;3.74;57.23;22805.78;4995447;28;46160;-85
2022/12/17 20:14:13;;;;;;;;;54.00;43.75;;;;;3.79;57.04;23138.78;4995806;28;45454;-85
2022/12/17 20:16:39;;;;;;;;;44.00;38.50;;;;;3.80;57.09;23139.22;4976889;28;45525;-84
2022/12/17 20:19:07;;;;;;;;;59.50;47.00;;;;;3.61;57.14;23131.00;4975457;28;45537;-85
2022/12/17 20:21:33;;;;;;;;;63.25;49.00;;;;;3.78;57.15;23469.47;4995439;28;45536;-85
2022/12/17 20:23:58;;;;;;;;;55.75;45.75;;;;;3.77;57.16;23799.75;4995267;28;45487;-84
2022/12/17 20:26:24;;;;;;;;;53.75;44.75;;;;;3.61;56.88;24123.75;4995224;28;45442;-84
2022/12/17 20:28:51;;;;;;;;;49.75;43.25;;;;;3.68;56.72;23795.97;4991766;28;45506;-84
2022/12/17 20:31:17;;;;;;;;;56.00;46.25;;;;;3.66;57.07;24125.78;4994569;28;48417;-85
2022/12/17 20:33:43;;;;;;;;;65.75;51.25;;;;;3.73;57.08;24129.16;4977501;28;46134;-85
2022/12/17 20:36:12;;;;;;;;;54.75;44.75;;;;;3.46;56.64;24117.00;4990723;28;45766;-84
2022/12/17 20:38:38;;;;;;;;;57.25;47.00;;;;;3.72;56.65;24459.44;4996040;28;45431;-85
2022/12/17 20:41:13;;;;;;;;;60.75;46.25;;;;;3.71;56.87;24458.97;4996118;28;46350;-85
2022/12/17 20:43:39;;;;;;;;;54.25;44.25;;;;;3.48;56.93;24779.59;4975933;28;45617;-84
2022/12/17 20:46:07;;;;;;;;;56.75;43.00;;;;;3.40;56.55;25106.97;4994342;28;45449;-85
2022/12/17 20:48:32;;;;;;;;;53.00;44.75;;;;;3.59;56.56;24784.88;4984690;28;45668;-85
2022/12/17 20:50:57;;;;;;;;;53.50;45.50;;;;;3.42;56.73;24776.81;4995573;28;46164;-84
2022/12/17 20:53:23;;;;;;;;;52.75;41.50;;;;;3.19;56.67;24766.47;4993384;28;45533;-84
2022/12/17 20:55:58;;;;;;;;;60.75;47.50;;;;;3.70;56.62;24789.72;4995536;28;45640;-84
2022/12/17 20:58:24;;;;;;;;;59.50;47.00;;;;;3.69;57.06;24458.28;4998010;28;45386;-85
2022/12/17 21:00:49;;;;;;;;;61.50;49.00;;;;;3.42;57.21;24446.00;4993532;28;46586;-84
2022/12/17 21:03:14;;;;;;;;;61.00;49.25;;;;;3.61;56.85;24454.66;4995319;28;45473;-85
2022/12/17 21:05:40;;;;;;;;;61.50;49.25;;;;;2.73;57.25;24085.31;4993241;28;45531;-85
2022/12/17 21:08:05;;;;;;;;;66.75;48.00;;;;;3.35;57.52;24443.03;4991959;28;45526;-85
2022/12/17 21:10:31;;;;;;;;;63.75;50.75;;;;;3.36;57.55;24112.72;4995303;28;46097;-85
2022/12/17 21:15:47;;;;;;;;;64.25;51.00;;;;;3.34;57.39;23450.63;4995426;28;45396;-84
2022/12/17 21:18:12;;;;;;;;;64.50;49.25;;;;;3.66;57.17;23795.09;4991492;28;45476;-85
2022/12/17 21:20:38;;;;;;;;;61.25;49.50;;;;;3.42;56.96;23784.66;4979591;28;48102;-84
2022/12/17 21:23:03;;;;;;;;;61.50;51.00;;;;;3.68;57.30;23795.97;4979278;28;45442;-84
2022/12/17 21:25:29;;;;;;;;;62.75;50.50;;;;;3.52;57.04;23788.88;4998146;28;45713;-85
2022/12/17 21:27:54;;;;;;;;;68.25;51.50;;;;;3.45;57.39;23785.78;4993315;28;45563;-85
2022/12/17 21:30:19;;;;;;;;;61.50;48.00;;;;;3.58;56.95;24122.63;4993921;28;45662;-84
2022/12/17 21:32:44;;;;;;;;;60.25;44.00;;;;;3.32;56.54;24110.94;4992470;28;45373;-85
2022/12/17 21:35:10;;;;;;;;;60.75;50.25;;;;;3.36;56.70;23782.00;4992958;28;45542;-85
2022/12/17 21:37:35;;;;;;;;;36.00;33.75;;;;;3.57;56.60;23460.28;4982011;28;45547;-85
2022/12/17 21:40:00;;;;;;;;;54.25;43.75;;;;;3.83;56.50;23471.47;4993489;28;48169;-85
2022/12/17 21:45:10;;;;;;;;;56.00;44.75;;;;;3.68;56.60;23795.97;4992478;28;45562;-85
2022/12/17 21:47:36;;;;;;;;;60.25;46.75;;;;;3.46;56.39;24117.00;4993571;28;45368;-85
2022/12/17 21:50:02;;;;;;;;;57.75;43.25;;;;;3.37;56.14;24113.41;4975030;28;47172;-85
2022/12/17 21:52:27;;;;;;;;;59.50;46.00;;;;;3.55;56.15;24452.13;4989313;28;45512;-86
2022/12/17 21:54:52;;;;;;;;;51.25;44.50;;;;;3.45;56.21;24778.44;5004314;28;45513;-85
2022/12/17 21:57:18;;;;;;;;;55.75;44.50;;;;;3.28;56.33;24770.63;4987973;28;45477;-85
2022/12/17 21:59:43;;;;;;;;;54.50;41.75;;;;;3.54;56.75;24782.59;4993005;28;47240;-85
2022/12/17 22:02:09;;;;;;;;;52.00;42.00;;;;;3.35;56.35;25104.66;4977106;28;45419;-85
2022/12/17 22:04:34;;;;;;;;;48.75;42.25;;;;;3.62;56.25;24786.03;4994545;28;45543;-84
2022/12/17 22:07:00;;;;;;;;;57.50;43.25;;;;;3.69;56.15;24789.03;4985714;28;45486;-85
2022/12/17 22:09:25;;;;;;;;;41.00;38.75;;;;;3.58;56.57;25115.38;4995718;28;46424;-86
2022/12/17 22:14:01;;;;;;;;;55.00;43.75;;;;;3.65;56.44;24787.41;4996096;28;45528;-86
2022/12/17 22:14:36;;;;;;;;;47.25;41.00;;;;;3.38;56.60;24775.22;4995543;28;45836;-86
2022/12/17 22:17:01;;;;;;;;;54.25;44.00;;;;;3.62;56.52;25117.00;4979277;28;45652;-86
2022/12/17 22:19:26;;;;;;;;;55.25;44.00;;;;;3.64;56.70;25117.69;4983055;28;47248;-88
2022/12/17 22:21:52;;;;;;;;;51.50;44.00;;;;;3.63;56.48;25117.47;4996707;28;45304;-87
2022/12/17 22:24:20;;;;;;;;;55.75;44.75;;;;;3.55;56.66;25113.97;5011042;28;45411;-87
2022/12/17 22:26:47;;;;;;;;;51.00;42.00;;;;;3.47;56.39;25441.16;5002271;28;45497;-86
2022/12/17 22:32:58;;;;;;;;;54.50;43.75;;;;;3.61;56.63;25447.53;5004861;28;48182;-87
2022/12/17 22:34:44;;;;;;;;;55.50;43.00;;;;;3.71;56.39;25783.31;4996249;28;45421;-85
2022/12/17 22:37:10;;;;;;;;;53.25;44.25;;;;;3.28;56.26;26424.78;4994962;28;45526;-85
2022/12/17 22:39:35;;;;;;;;;50.75;40.75;;;;;3.16;56.33;26419.41;5000114;28;48138;-85
2022/12/17 22:44:44;;;;;;;;;54.50;41.00;;;;;3.35;56.29;26759.16;4995386;28;45453;-87
2022/12/17 22:47:10;;;;;;;;;48.75;41.00;;;;;3.32;56.32;26757.66;4992390;28;45280;-88
2022/12/17 22:49:35;;;;;;;;;56.00;41.50;;;;;3.53;56.40;26768.03;4976417;28;47502;-88
2022/12/17 22:52:00;;;;;;;;;46.00;40.00;;;;;3.24;56.24;27084.63;4969106;28;45895;-88
2022/12/17 22:54:26;;;;;;;;;48.00;38.25;;;;;3.07;56.74;27076.66;4991093;28;45777;-89
2022/12/17 22:56:51;;;;;;;;;56.50;43.50;;;;;2.83;56.22;27395.41;4975872;28;45460;-90
2022/12/17 22:59:17;;;;;;;;;54.50;43.75;;;;;3.58;56.65;27432.75;4995876;28;47203;-89
2022/12/17 23:01:43;;;;;;;;;49.75;40.25;;;;;2.94;56.17;28393.50;4979398;28;45360;-89
2022/12/17 23:04:11;;;;;;;;;44.00;39.00;;;;;3.54;55.74;28424.25;4995733;28;45590;-89
2022/12/17 23:06:37;;;;;;;;;48.00;40.00;;;;;3.04;55.83;28729.41;4991036;28;45470;-89
2022/12/17 23:09:02;;;;;;;;;44.50;38.50;;;;;3.01;55.97;29058.78;4995937;28;46157;-88
2022/12/17 23:11:30;;;;;;;;;54.25;42.00;;;;;3.25;56.36;29402.69;4996110;28;45570;-89
2022/12/17 23:13:55;;;;;;;;;37.50;29.50;;;;;3.24;55.84;29071.03;4994992;28;45406;-88
2022/12/17 23:16:21;;;;;;;;;46.00;39.00;;;;;3.22;56.01;29400.81;4994644;28;45304;-89
2022/12/17 23:18:48;;;;;;;;;47.75;39.25;;;;;3.32;56.17;30068.59;4999515;28;46177;-89
2022/12/17 23:21:22;;;;;;;;;47.75;40.25;;;;;2.67;56.17;31026.53;4996407;28;45423;-87
2022/12/17 23:23:49;;;;;;;;;54.75;39.50;;;;;2.86;56.19;31368.06;4994442;28;45439;-88
2022/12/17 23:26:19;;;;;;;;;49.25;40.75;;;;;3.03;56.13;31708.97;4999914;28;46653;-88
2022/12/17 23:28:45;;;;;;;;;45.50;40.50;;;;;2.87;56.36;31699.75;4998257;28;47349;-90
2022/12/17 23:31:19;;;;;;;;;44.75;39.25;;;;;2.78;56.72;31694.56;4999455;28;45446;-91
2022/12/17 23:33:45;;;;;;;;;47.50;40.25;;;;;2.98;56.87;31706.09;5000459;28;45372;-90
2022/12/17 23:36:21;;;;;;;;;45.75;39.00;;;;;2.94;56.67;31041.50;4996893;28;46916;-90
2022/12/17 23:38:48;;;;;;;;;50.75;42.00;;;;;2.79;56.82;31695.16;4999902;28;47409;-88
2022/12/17 23:41:18;;;;;;;;;56.50;44.25;;;;;2.47;56.91;31346.66;4984543;28;45448;-87
2022/12/17 23:43:44;;;;;;;;;44.25;37.75;;;;;2.66;56.78;32350.03;5006014;28;45567;-88
2022/12/17 23:46:10;;;;;;;;;56.00;43.25;;;;;2.36;57.11;31671.22;4998485;28;45352;-88
2022/12/17 23:48:39;;;;;;;;;53.75;43.25;;;;;2.75;56.87;32686.75;4998183;28;45625;-90
2022/12/17 23:51:05;;;;;;;;;55.00;43.25;;;;;2.26;57.35;32658.28;4997990;28;45708;-92
2022/12/17 23:53:32;;;;;;;;;55.25;41.25;;;;;2.60;57.05;32677.56;4996320;28;45456;-94
2022/12/17 23:56:13;;;;;;;;;51.50;42.50;;;;;2.37;57.26;32333.59;4997163;28;45572;-92
2022/12/17 23:58:41;;;;;;;;;47.25;39.50;;;;;2.44;57.19;32006.75;4987553;28;48142;-93
